Terminal Aerodrome Forecast
Issued by NWS Corpus Christi, TX

Home | Current Version | Previous Version | Text Only | Print | Product List | Glossary On
Versions: 1 2 3 4 5 6 7 8 9 10 11 12 13
000
FTUS44 KCRP 230500
TAFVCT
TAF
KVCT 230540Z 2306/2406 17005KT P6SM FEW015
     FM230800 VRB03KT 4SM BR SCT012
      TEMPO 2310/2313 2SM BR BKN010
     FM231400 VRB04KT P6SM SCT025 BKN100
     FM231800 16010KT P6SM VCTS BKN040CB OVC250 PROB30 2320/2324 5SM
      TSRA OVC035CB=

USA.gov is the U.S. government's official web portal to all federal, state and local government web resources and services.